createdAt,value
2022-10-25T00:01:47.033Z,100981.00
2022-10-25T00:06:59.233Z,100988.06
2022-10-25T00:09:32.588Z,100994.00
2022-10-25T00:12:06.677Z,100979.81
2022-10-25T00:14:39.579Z,100997.56
2022-10-25T00:17:12.561Z,101000.31
2022-10-25T00:19:52.900Z,101009.81
2022-10-25T00:22:26.138Z,101010.59
2022-10-25T00:24:59.122Z,101010.56
2022-10-25T00:27:31.881Z,101007.44
2022-10-25T00:30:05.999Z,101004.25
2022-10-25T00:32:38.995Z,101014.53
2022-10-25T00:35:13.669Z,101014.50
2022-10-25T00:37:46.557Z,101016.09
2022-10-25T00:40:19.922Z,101023.19
2022-10-25T00:42:52.665Z,101022.41
2022-10-25T00:45:27.416Z,101021.19
2022-10-25T00:48:04.648Z,101017.69
2022-10-25T00:50:47.596Z,101024.78
2022-10-25T00:53:24.206Z,101024.38
2022-10-25T00:56:03.232Z,101019.28
2022-10-25T00:58:39.846Z,101021.22
2022-10-25T01:01:14.667Z,101020.41
2022-10-25T01:03:52.454Z,101024.78
2022-10-25T01:06:32.332Z,101028.31
2022-10-25T01:09:06.681Z,101032.28
2022-10-25T01:11:39.460Z,101029.53
2022-10-25T01:14:15.877Z,101028.72
2022-10-25T01:16:58.693Z,101031.50
2022-10-25T01:19:47.774Z,101033.47
2022-10-25T01:22:28.523Z,101033.47
2022-10-25T01:25:28.682Z,101037.41
2022-10-25T01:28:08.468Z,101034.25
2022-10-25T01:31:07.900Z,101046.88
2022-10-25T01:33:50.516Z,101045.28
2022-10-25T01:36:32.960Z,101043.72
2022-10-25T01:39:15.437Z,101049.25
2022-10-25T01:41:58.225Z,101046.91
2022-10-25T01:44:40.703Z,101047.66
2022-10-25T01:47:26.323Z,101052.81
2022-10-25T01:50:03.050Z,101059.50
2022-10-25T01:52:36.058Z,101059.91
2022-10-25T01:55:11.124Z,101054.38
2022-10-25T01:57:59.913Z,101054.00
2022-10-25T02:00:37.692Z,101063.03
2022-10-25T02:03:19.200Z,101061.84
2022-10-25T02:06:02.662Z,101065.41
2022-10-25T02:08:40.339Z,101061.06
2022-10-25T02:11:23.535Z,101063.06
2022-10-25T02:14:08.211Z,101069.00
2022-10-25T02:16:45.609Z,101067.41
2022-10-25T02:19:23.540Z,101064.25
2022-10-25T02:21:59.395Z,101069.00
2022-10-25T02:24:37.190Z,101069.00
2022-10-25T02:27:12.937Z,101072.53
2022-10-25T02:29:47.020Z,101071.75
2022-10-25T02:32:22.976Z,101083.97
2022-10-25T02:35:00.456Z,101076.88
2022-10-25T02:37:41.004Z,101076.88
2022-10-25T02:40:16.680Z,101081.22
2022-10-25T02:42:54.885Z,101082.41
2022-10-25T02:45:27.842Z,101079.66
2022-10-25T02:48:05.891Z,101082.00
2022-10-25T02:50:40.437Z,101077.69
2022-10-25T02:53:13.761Z,101078.84
2022-10-25T02:55:46.741Z,101080.03
2022-10-25T02:58:20.787Z,101080.81
2022-10-25T03:00:53.675Z,101080.44
2022-10-25T03:03:27.471Z,101089.91
2022-10-25T03:06:01.860Z,101090.31
2022-10-25T03:08:35.050Z,101094.63
2022-10-25T03:11:09.472Z,101099.78
2022-10-25T03:13:42.375Z,101095.03
2022-10-25T03:16:16.323Z,101098.19
2022-10-25T03:18:49.122Z,101100.56
2022-10-25T03:21:23.312Z,101101.75
2022-10-25T03:23:56.079Z,101107.66
2022-10-25T03:26:28.996Z,101114.78
2022-10-25T03:29:01.779Z,101114.78
2022-10-25T03:31:34.585Z,101127.03
2022-10-25T03:34:07.444Z,101114.78
2022-10-25T03:36:41.652Z,101128.19
2022-10-25T03:39:14.650Z,101130.16
2022-10-25T03:41:47.528Z,101132.16
2022-10-25T03:44:21.470Z,101129.78
2022-10-25T03:46:54.195Z,101132.91
2022-10-25T03:49:31.769Z,101135.28
2022-10-25T03:52:07.365Z,101126.59
2022-10-25T03:54:42.432Z,101130.16
2022-10-25T03:57:15.553Z,101125.81
2022-10-25T03:59:50.645Z,101123.84
2022-10-25T04:02:23.536Z,101121.50
2022-10-25T04:04:59.257Z,101133.31
2022-10-25T04:07:33.546Z,101138.84
2022-10-25T04:10:07.489Z,101138.06
2022-10-25T04:12:42.104Z,101146.34
2022-10-25T04:15:18.050Z,101144.75
2022-10-25T04:17:54.001Z,101143.19
2022-10-25T04:20:29.397Z,101143.97
2022-10-25T04:23:06.413Z,101153.03
2022-10-25T04:25:39.471Z,101158.56
2022-10-25T04:28:12.243Z,101158.56
2022-10-25T04:30:45.199Z,101166.09
2022-10-25T04:33:18.007Z,101166.84
2022-10-25T04:35:57.426Z,101170.81
2022-10-25T04:38:33.408Z,101181.84
2022-10-25T04:41:06.955Z,101179.88
2022-10-25T04:43:39.821Z,101184.63
2022-10-25T04:46:12.920Z,101185.03
2022-10-25T04:48:45.509Z,101181.47
2022-10-25T04:51:18.466Z,101187.78
2022-10-25T04:53:53.865Z,101192.13
2022-10-25T04:56:26.729Z,101187.38
2022-10-25T04:59:02.702Z,101196.84
2022-10-25T05:01:36.042Z,101208.69
2022-10-25T05:04:09.138Z,101212.66
2022-10-25T05:06:41.876Z,101206.72
2022-10-25T05:09:16.484Z,101211.84
2022-10-25T05:11:49.386Z,101209.47
2022-10-25T05:14:22.452Z,101215.41
2022-10-25T05:16:57.497Z,101220.91
2022-10-25T05:19:31.191Z,101226.44
2022-10-25T05:22:04.343Z,101226.81
2022-10-25T05:24:38.758Z,101228.81
2022-10-25T05:27:11.781Z,101226.41
2022-10-25T05:29:44.372Z,101231.16
2022-10-25T05:32:17.386Z,101231.16
2022-10-25T05:34:50.237Z,101233.13
2022-10-25T05:37:23.221Z,101238.66
2022-10-25T05:39:58.025Z,101232.72
2022-10-25T05:42:31.245Z,101241.00
2022-10-25T05:45:04.802Z,101233.13
2022-10-25T05:47:37.871Z,101240.22
2022-10-25T05:50:11.067Z,101242.56
2022-10-25T05:52:44.908Z,101243.38
2022-10-25T05:55:21.585Z,101241.00
2022-10-25T05:57:54.606Z,101249.28
2022-10-25T06:00:29.474Z,101245.75
2022-10-25T06:03:03.113Z,101247.69
2022-10-25T06:05:36.015Z,101245.72
2022-10-25T06:08:31.706Z,101247.28
2022-10-25T06:11:08.029Z,101246.94
2022-10-25T06:13:49.925Z,101246.53
2022-10-25T06:16:25.431Z,101246.13
2022-10-25T06:18:58.730Z,101245.34
2022-10-25T06:21:31.897Z,101251.25
2022-10-25T06:24:05.217Z,101257.56
2022-10-25T06:26:39.333Z,101259.91
2022-10-25T06:29:12.118Z,101259.91
2022-10-25T06:31:45.086Z,101263.84
2022-10-25T06:34:18.206Z,101270.13
2022-10-25T06:36:51.228Z,101264.63
2022-10-25T06:39:24.883Z,101267.00
2022-10-25T06:41:59.111Z,101274.91
2022-10-25T06:44:31.902Z,101278.06
2022-10-25T06:47:16.526Z,101285.94
2022-10-25T06:49:50.727Z,101291.50
2022-10-25T06:52:23.493Z,101293.88
2022-10-25T06:54:56.267Z,101302.50
2022-10-25T06:57:30.427Z,101304.88
2022-10-25T07:00:03.355Z,101300.91
2022-10-25T07:02:36.019Z,101301.72
2022-10-25T07:05:09.641Z,101309.59
2022-10-25T07:07:42.423Z,101306.44
2022-10-25T07:10:15.369Z,101302.13
2022-10-25T07:12:49.631Z,101317.88
2022-10-25T07:15:25.047Z,101318.28
2022-10-25T07:17:57.944Z,101324.22
2022-10-25T07:20:30.803Z,101319.09
2022-10-25T07:23:06.600Z,101323.00
2022-10-25T07:25:41.376Z,101333.25
2022-10-25T07:28:15.514Z,101338.38
2022-10-25T07:30:49.283Z,101340.81
2022-10-25T07:33:24.873Z,101330.88
2022-10-25T07:36:10.224Z,101336.84
2022-10-25T07:38:43.894Z,101340.38
2022-10-25T07:41:17.157Z,101340.38
2022-10-25T07:43:51.357Z,101345.94
2022-10-25T07:46:24.953Z,101343.59
2022-10-25T07:48:57.835Z,101346.75
2022-10-25T07:51:31.314Z,101346.00
2022-10-25T07:54:04.248Z,101344.78
2022-10-25T07:56:36.907Z,101354.66
2022-10-25T07:59:11.137Z,101346.00
2022-10-25T08:01:44.111Z,101351.56
2022-10-25T08:04:19.247Z,101354.69
2022-10-25T08:06:53.198Z,101361.81
2022-10-25T08:09:39.075Z,101365.75
2022-10-25T08:12:12.046Z,101375.22
2022-10-25T08:14:47.565Z,101377.25
2022-10-25T08:17:22.397Z,101371.31
2022-10-25T08:19:56.411Z,101374.88
2022-10-25T08:22:29.283Z,101378.09
2022-10-25T08:25:02.840Z,101383.22
2022-10-25T08:27:35.706Z,101382.84
2022-10-25T08:30:10.689Z,101382.84
2022-10-25T08:32:46.216Z,101378.47
2022-10-25T08:35:19.718Z,101382.47
2022-10-25T08:38:00.590Z,101378.50
2022-10-25T08:40:44.047Z,101382.47
2022-10-25T08:43:24.234Z,101379.31
2022-10-25T08:46:02.107Z,101382.50
2022-10-25T08:48:38.325Z,101384.50
2022-10-25T08:51:22.430Z,101387.25
2022-10-25T08:53:59.920Z,101388.84
2022-10-25T08:56:39.490Z,101394.78
2022-10-25T08:59:21.868Z,101399.53
2022-10-25T09:01:59.446Z,101402.72
2022-10-25T09:04:34.440Z,101399.94
2022-10-25T09:07:13.895Z,101403.88
2022-10-25T09:09:54.645Z,101411.41
2022-10-25T09:12:40.915Z,101420.50
2022-10-25T09:15:21.162Z,101422.09
2022-10-25T09:17:55.685Z,101421.72
2022-10-25T09:20:33.896Z,101425.66
2022-10-25T09:23:17.058Z,101427.25
2022-10-25T09:25:53.895Z,101429.25
2022-10-25T09:28:35.162Z,101440.69
2022-10-25T09:31:14.253Z,101445.84
2022-10-25T09:33:49.249Z,101445.84
2022-10-25T09:36:25.958Z,101445.81
2022-10-25T09:39:02.940Z,101446.22
2022-10-25T09:41:48.116Z,101445.00
2022-10-25T09:44:39.941Z,101438.28
2022-10-25T09:47:25.208Z,101441.03
2022-10-25T09:50:02.950Z,101442.59
2022-10-25T09:52:45.156Z,101438.59
2022-10-25T09:55:41.169Z,101439.78
2022-10-25T09:58:23.744Z,101443.38
2022-10-25T10:00:59.654Z,101439.75
2022-10-25T10:03:35.296Z,101437.78
2022-10-25T10:06:18.755Z,101443.69
2022-10-25T10:08:54.375Z,101451.19
2022-10-25T10:11:27.786Z,101450.81
2022-10-25T10:14:09.150Z,101453.19
2022-10-25T10:16:46.139Z,101459.53
2022-10-25T10:19:21.235Z,101460.72
2022-10-25T10:21:58.242Z,101457.16
2022-10-25T10:24:33.777Z,101462.28
2022-10-25T10:27:15.457Z,101461.09
2022-10-25T10:29:56.337Z,101470.56
2022-10-25T10:32:34.736Z,101463.81
2022-10-25T10:35:25.533Z,101467.34
2022-10-25T10:38:25.846Z,101469.25
2022-10-25T10:41:15.694Z,101473.94
2022-10-25T10:43:49.872Z,101470.38
2022-10-25T10:46:24.701Z,101470.28
2022-10-25T10:48:59.118Z,101476.63
2022-10-25T10:51:45.116Z,101474.59
2022-10-25T10:54:47.175Z,101479.25
2022-10-25T10:57:29.649Z,101475.31
2022-10-25T11:00:03.385Z,101477.69
2022-10-25T11:02:41.683Z,101476.09
2022-10-25T11:05:26.544Z,101474.56
2022-10-25T11:08:03.305Z,101473.72
2022-10-25T11:10:38.306Z,101476.88
2022-10-25T11:13:14.167Z,101470.06
2022-10-25T11:16:21.958Z,101474.81
2022-10-25T11:19:18.095Z,101474.00
2022-10-25T11:22:04.659Z,101474.34
2022-10-25T11:24:44.456Z,101472.72
2022-10-25T11:27:29.159Z,101474.25
2022-10-25T11:30:10.753Z,101478.16
2022-10-25T11:33:06.247Z,101474.13
2022-10-25T11:35:52.025Z,101480.09
2022-10-25T11:38:40.086Z,101487.66
2022-10-25T11:41:28.269Z,101486.03
2022-10-25T11:44:18.788Z,101482.75
2022-10-25T11:46:57.667Z,101482.00
2022-10-25T11:49:44.445Z,101482.81
2022-10-25T11:52:38.261Z,101479.22
2022-10-25T11:55:22.681Z,101480.41
2022-10-25T11:58:08.152Z,101474.41
2022-10-25T12:00:53.527Z,101473.31
2022-10-25T12:03:42.968Z,101472.13
2022-10-25T12:06:24.224Z,101470.44
2022-10-25T12:09:05.866Z,101480.72
2022-10-25T12:11:44.458Z,101474.00
2022-10-25T12:14:23.885Z,101471.22
2022-10-25T12:17:01.293Z,101477.25
2022-10-25T12:19:44.162Z,101470.84
2022-10-25T12:22:21.190Z,101472.91
2022-10-25T12:24:59.294Z,101474.53
2022-10-25T12:27:33.649Z,101463.00
2022-10-25T12:30:15.073Z,101468.63
2022-10-25T12:32:55.069Z,101470.25
2022-10-25T12:35:31.417Z,101475.31
2022-10-25T12:38:10.818Z,101478.03
2022-10-25T12:40:47.708Z,101474.03
2022-10-25T12:43:26.138Z,101475.69
2022-10-25T12:46:17.562Z,101479.22
2022-10-25T12:49:14.416Z,101476.41
2022-10-25T12:52:00.967Z,101477.19
2022-10-25T12:55:10.931Z,101474.47
2022-10-25T12:57:53.576Z,101467.63
2022-10-25T13:00:27.687Z,101470.72
2022-10-25T13:03:38.048Z,101477.13
2022-10-25T13:06:23.326Z,101474.31
2022-10-25T13:09:03.843Z,101470.78
2022-10-25T13:11:40.170Z,101473.91
2022-10-25T13:14:24.667Z,101477.84
2022-10-25T13:17:36.644Z,101471.13
2022-10-25T13:20:48.131Z,101474.72
2022-10-25T13:23:59.381Z,101471.94
2022-10-25T13:27:16.367Z,101467.94
2022-10-25T13:30:22.421Z,101474.03
2022-10-25T13:33:33.686Z,101462.94
2022-10-25T13:36:09.503Z,101467.66
2022-10-25T13:38:42.667Z,101469.34
2022-10-25T13:41:18.079Z,101459.34
2022-10-25T13:44:02.802Z,101464.50
2022-10-25T13:46:38.693Z,101464.16
2022-10-25T13:49:33.638Z,101470.13
2022-10-25T13:52:22.217Z,101466.97
2022-10-25T13:54:57.562Z,101462.28
2022-10-25T13:57:52.470Z,101469.47
2022-10-25T14:00:36.007Z,101466.31
2022-10-25T14:03:47.220Z,101469.91
2022-10-25T14:06:28.647Z,101460.81
2022-10-25T14:09:13.703Z,101460.41
2022-10-25T14:11:52.521Z,101456.06
2022-10-25T14:14:29.567Z,101451.44
2022-10-25T14:17:17.768Z,101455.03
2022-10-25T14:19:55.078Z,101444.72
2022-10-25T14:22:32.951Z,101445.94
2022-10-25T14:25:19.867Z,101446.34
2022-10-25T14:28:05.831Z,101444.41
2022-10-25T14:30:43.859Z,101438.09
2022-10-25T14:33:26.461Z,101443.25
2022-10-25T14:36:09.772Z,101440.53
2022-10-25T14:38:51.020Z,101433.31
2022-10-25T14:41:26.974Z,101442.91
2022-10-25T14:44:00.551Z,101433.00
2022-10-25T14:46:34.024Z,101437.41
2022-10-25T14:49:10.769Z,101443.78
2022-10-25T14:51:45.555Z,101439.03
2022-10-25T14:54:28.301Z,101436.66
2022-10-25T14:57:04.848Z,101425.97
2022-10-25T14:59:44.940Z,101433.47
2022-10-25T15:02:23.387Z,101427.19
2022-10-25T15:04:59.877Z,101427.13
2022-10-25T15:07:34.883Z,101424.84
2022-10-25T15:10:28.736Z,101431.19
2022-10-25T15:13:05.888Z,101416.94
2022-10-25T15:15:42.374Z,101413.72
2022-10-25T15:18:28.337Z,101415.34
2022-10-25T15:21:08.112Z,101399.50
2022-10-25T15:23:44.999Z,101403.50
2022-10-25T15:26:22.721Z,101401.97
2022-10-25T15:28:58.769Z,101408.25
2022-10-25T15:31:36.307Z,101409.88
2022-10-25T15:34:16.013Z,101417.06
2022-10-25T15:36:50.017Z,101408.34
2022-10-25T15:39:27.385Z,101412.72
2022-10-25T15:42:00.451Z,101410.66
2022-10-25T15:44:34.684Z,101412.25
2022-10-25T15:47:21.103Z,101409.88
2022-10-25T15:49:54.709Z,101413.13
2022-10-25T15:52:29.938Z,101411.16
2022-10-25T15:55:17.389Z,101410.41
2022-10-25T15:57:51.180Z,101418.69
2022-10-25T16:00:28.159Z,101417.19
2022-10-25T16:03:01.990Z,101418.38
2022-10-25T16:05:36.662Z,101422.72
2022-10-25T16:08:10.436Z,101417.94
2022-10-25T16:10:43.358Z,101413.22
2022-10-25T16:13:19.643Z,101409.31
2022-10-25T16:15:54.254Z,101411.25
2022-10-25T16:18:27.646Z,101410.06
2022-10-25T16:21:00.919Z,101411.69
2022-10-25T16:23:36.730Z,101404.56
2022-10-25T16:26:22.849Z,101411.31
2022-10-25T16:28:55.909Z,101405.34
2022-10-25T16:31:29.963Z,101406.53
2022-10-25T16:34:02.932Z,101410.09
2022-10-25T16:36:39.054Z,101404.94
2022-10-25T16:39:12.557Z,101399.81
2022-10-25T16:41:47.264Z,101400.25
2022-10-25T16:44:21.052Z,101405.81
2022-10-25T16:47:00.038Z,101401.06
2022-10-25T16:52:23.057Z,101388.41
2022-10-25T16:54:59.945Z,101390.38
2022-10-25T16:57:36.120Z,101393.97
2022-10-25T17:00:15.391Z,101389.22
2022-10-25T17:02:56.809Z,101395.16
2022-10-25T17:05:35.081Z,101388.03
2022-10-25T17:08:26.870Z,101393.59
2022-10-25T17:11:10.277Z,101392.78
2022-10-25T17:13:49.124Z,101387.25
2022-10-25T17:16:24.701Z,101390.44
2022-10-25T17:19:06.037Z,101392.81
2022-10-25T17:21:40.427Z,101403.09
2022-10-25T17:24:16.800Z,101389.66
2022-10-25T17:26:56.944Z,101385.69
2022-10-25T17:29:39.586Z,101398.75
2022-10-25T17:32:22.272Z,101393.63
2022-10-25T17:34:59.583Z,101390.06
2022-10-25T17:37:33.082Z,101386.53
2022-10-25T17:40:09.439Z,101391.66
2022-10-25T17:42:42.497Z,101396.81
2022-10-25T17:45:15.143Z,101391.66
2022-10-25T17:47:48.543Z,101386.91
2022-10-25T17:50:23.499Z,101388.09
2022-10-25T17:52:56.629Z,101381.75
2022-10-25T17:55:33.165Z,101394.78
2022-10-25T17:58:06.800Z,101391.66
2022-10-25T18:00:42.081Z,101393.63
2022-10-25T18:03:16.272Z,101387.69
2022-10-25T18:05:50.668Z,101385.72
2022-10-25T18:08:23.591Z,101381.75
2022-10-25T18:10:56.414Z,101384.13
2022-10-25T18:13:33.652Z,101391.66
2022-10-25T18:18:40.967Z,101383.34
2022-10-25T18:21:19.284Z,101388.88
2022-10-25T18:23:56.005Z,101383.34
2022-10-25T18:26:33.347Z,101396.78
2022-10-25T18:29:06.412Z,101393.19
2022-10-25T18:31:39.266Z,101390.47
2022-10-25T18:34:12.208Z,101396.75
2022-10-25T18:36:46.725Z,101384.91
2022-10-25T18:39:19.644Z,101384.09
2022-10-25T18:41:52.644Z,101373.84
2022-10-25T18:44:25.582Z,101377.00
2022-10-25T18:47:00.317Z,101371.84
2022-10-25T18:49:33.302Z,101372.28
2022-10-25T18:52:11.934Z,101375.44
2022-10-25T18:54:46.924Z,101373.03
2022-10-25T18:57:21.397Z,101373.81
2022-10-25T18:59:54.369Z,101370.69
2022-10-25T19:02:34.131Z,101371.47
2022-10-25T19:05:11.001Z,101369.88
2022-10-25T19:07:48.146Z,101361.19
2022-10-25T19:10:23.038Z,101365.53
2022-10-25T19:12:56.169Z,101361.59
2022-10-25T19:15:29.526Z,101362.38
2022-10-25T19:18:10.043Z,101353.66
2022-10-25T19:20:50.830Z,101354.47
2022-10-25T19:23:26.467Z,101359.59
2022-10-25T19:26:04.577Z,101354.88
2022-10-25T19:28:44.796Z,101352.06
2022-10-25T19:31:18.741Z,101353.28
2022-10-25T19:33:52.953Z,101350.13
2022-10-25T19:36:25.990Z,101354.06
2022-10-25T19:39:00.293Z,101355.25
2022-10-25T19:41:39.406Z,101347.72
2022-10-25T19:44:12.458Z,101348.09
2022-10-25T19:46:49.273Z,101344.53
2022-10-25T19:49:22.320Z,101342.97
2022-10-25T19:51:57.441Z,101340.63
2022-10-25T19:54:33.050Z,101341.78
2022-10-25T19:57:06.628Z,101334.69
2022-10-25T19:59:39.725Z,101335.09
2022-10-25T20:02:12.521Z,101342.56
2022-10-25T20:04:45.516Z,101336.63
2022-10-25T20:07:20.876Z,101335.81
2022-10-25T20:09:55.036Z,101327.97
2022-10-25T20:12:30.554Z,101328.38
2022-10-25T20:15:03.404Z,101326.00
2022-10-25T20:17:39.462Z,101326.78
2022-10-25T20:20:12.896Z,101325.19
2022-10-25T20:22:48.975Z,101333.13
2022-10-25T20:25:23.396Z,101335.06
2022-10-25T20:27:57.489Z,101323.19
2022-10-25T20:30:31.546Z,101324.34
2022-10-25T20:33:06.021Z,101325.53
2022-10-25T20:35:39.996Z,101324.81
2022-10-25T20:38:13.198Z,101317.66
2022-10-25T20:40:47.408Z,101321.59
2022-10-25T20:43:22.163Z,101314.88
2022-10-25T20:45:55.581Z,101312.88
2022-10-25T20:48:28.712Z,101313.69
2022-10-25T20:51:04.244Z,101320.78
2022-10-25T20:53:40.237Z,101319.19
2022-10-25T20:56:14.928Z,101319.94
2022-10-25T20:58:50.840Z,101319.16
2022-10-25T21:01:26.223Z,101319.94
2022-10-25T21:03:59.171Z,101316.78
2022-10-25T21:06:32.031Z,101317.16
2022-10-25T21:09:05.115Z,101319.13
2022-10-25T21:11:39.602Z,101309.22
2022-10-25T21:14:13.714Z,101315.19
2022-10-25T21:16:46.658Z,101312.03
2022-10-25T21:19:19.611Z,101311.25
2022-10-25T21:21:55.319Z,101307.69
2022-10-25T21:24:30.474Z,101304.13
2022-10-25T21:27:04.860Z,101305.31
2022-10-25T21:29:38.542Z,101300.94
2022-10-25T21:32:11.404Z,101302.47
2022-10-25T21:34:44.156Z,101304.06
2022-10-25T21:37:17.157Z,101307.59
2022-10-25T21:39:49.873Z,101304.91
2022-10-25T21:42:24.093Z,101308.03
2022-10-25T21:44:56.845Z,101303.69
2022-10-25T21:47:29.620Z,101300.13
2022-10-25T21:50:02.793Z,101300.94
2022-10-25T21:52:35.922Z,101302.09
2022-10-25T21:55:10.032Z,101302.47
2022-10-25T21:57:51.831Z,101301.69
2022-10-25T22:00:29.681Z,101304.41
2022-10-25T22:03:02.621Z,101301.66
2022-10-25T22:05:35.368Z,101294.56
2022-10-25T22:08:08.114Z,101293.78
2022-10-25T22:10:41.446Z,101291.44
2022-10-25T22:13:15.712Z,101291.38
2022-10-25T22:15:56.473Z,101289.84
2022-10-25T22:18:29.830Z,101285.06
2022-10-25T22:21:04.837Z,101285.84
2022-10-25T22:23:37.881Z,101282.31
2022-10-25T22:26:12.238Z,101277.16
2022-10-25T22:28:46.427Z,101286.66
2022-10-25T22:31:20.338Z,101268.47
2022-10-25T22:33:54.729Z,101271.22
2022-10-25T22:36:29.760Z,101276.38
2022-10-25T22:39:03.727Z,101267.25
2022-10-25T22:41:36.848Z,101273.97
2022-10-25T22:44:13.229Z,101269.22
2022-10-25T22:46:46.073Z,101260.56
2022-10-25T22:49:21.726Z,101267.28
2022-10-25T22:51:54.462Z,101255.81
2022-10-25T22:54:28.801Z,101257.78
2022-10-25T22:57:01.550Z,101258.59
2022-10-25T22:59:35.922Z,101257.81
2022-10-25T23:02:08.791Z,101259.41
2022-10-25T23:04:41.506Z,101257.78
2022-10-25T23:07:14.422Z,101251.84
2022-10-25T23:09:47.252Z,101258.56
2022-10-25T23:12:21.811Z,101261.34
2022-10-25T23:14:56.062Z,101262.53
2022-10-25T23:17:29.295Z,101256.25
2022-10-25T23:20:02.343Z,101254.25
2022-10-25T23:22:37.510Z,101258.19
2022-10-25T23:25:13.182Z,101256.25
2022-10-25T23:27:46.129Z,101243.22
2022-10-25T23:30:20.175Z,101248.75
2022-10-25T23:32:53.558Z,101248.34
2022-10-25T23:35:26.238Z,101252.66
2022-10-25T23:37:59.101Z,101238.88
2022-10-25T23:40:32.518Z,101244.75
2022-10-25T23:43:05.521Z,101238.47
2022-10-25T23:45:39.883Z,101229.00
2022-10-25T23:48:12.716Z,101225.88
2022-10-25T23:50:45.699Z,101228.63
2022-10-25T23:53:18.474Z,101221.91
2022-10-25T23:55:52.629Z,101219.56
2022-10-25T23:58:25.630Z,101216.41
